SPHI/CIX METAR and TAF weather

Enter ICAO airport designator
Station Type Date Time Source
SPHI METAR 2020/01/26 01:00 UTC NOAA

SPHI 260100Z 18014KT 9999 FEW012 SCT050 BKN120 25/21 Q1014 RMK BIRD HAZARD RWY 19/01 PP000


Station Type Date Time Source
SPHI Decoded METAR 2020/01/26 01:00 UTC NOAA

Chiclayo, Peru (SPHI) 06-47S 079-50W 34M
Jan 25, 2020 - 08:00 PM EST / 2020.01.26 0100 UTC
Wind: from the S (180 degrees) at 16 MPH (14 KT):0
Visibility: greater than 7 mile(s):0
Sky conditions: mostly cloudy
Temperature: 77 F (25 C)
Dew Point: 69 F (21 C)
Relative Humidity: 78%
Pressure (altimeter): 29.94 in. Hg (1014 hPa)
ob: SPHI 260100Z 18014KT 9999 FEW012 SCT050 BKN120 25/21 Q1014 RMK BIRD HAZARD RWY 19/01 PP000
cycle: 1

Station Type Date Time Source
SPHI TAF 2020/01/25 18:33 UTC NOAA

TAF SPHI 251700Z 2518/2618 18018KT CAVOK TX32/2519Z TN21/2611Z
FM260400 17008KT 9999 BKN030
FM261400 17012KT CAVOK

Example: see airport list